createdAt,value
2019-05-22T00:01:51.139Z,18.82
2019-05-22T00:04:25.814Z,17.95
2019-05-22T00:06:54.838Z,18.82
2019-05-22T00:09:23.785Z,18.73
2019-05-22T00:11:52.353Z,17.82
2019-05-22T00:14:20.054Z,19.17
2019-05-22T00:16:47.698Z,20.30
2019-05-22T00:19:15.065Z,21.48
2019-05-22T00:21:42.403Z,20.02
2019-05-22T00:24:11.319Z,21.70
2019-05-22T00:26:40.281Z,21.25
2019-05-22T00:29:07.863Z,25.15
2019-05-22T00:31:35.149Z,21.52
2019-05-22T00:34:04.522Z,22.37
2019-05-22T00:36:32.973Z,21.57
2019-05-22T00:39:00.443Z,23.52
2019-05-22T00:41:30.458Z,23.25
2019-05-22T00:43:59.530Z,25.97
2019-05-22T00:46:28.304Z,25.37
2019-05-22T00:48:55.622Z,25.17
2019-05-22T00:51:36.214Z,25.48
2019-05-22T00:54:25.059Z,25.97
2019-05-22T00:56:56.579Z,26.15
2019-05-22T00:59:34.653Z,25.60
2019-05-22T01:02:03.127Z,25.17
2019-05-22T01:04:32.043Z,26.55
2019-05-22T01:07:00.940Z,24.25
2019-05-22T01:09:44.376Z,27.73
2019-05-22T01:12:16.947Z,26.05
2019-05-22T01:14:44.797Z,27.90
2019-05-22T01:17:12.420Z,25.62
2019-05-22T01:19:40.592Z,27.10
2019-05-22T01:22:09.526Z,25.35
2019-05-22T01:24:38.313Z,27.50
2019-05-22T01:27:07.240Z,26.23
2019-05-22T01:29:36.177Z,26.62
2019-05-22T01:32:21.475Z,26.75
2019-05-22T01:34:49.184Z,26.50
2019-05-22T01:37:18.123Z,27.67
2019-05-22T01:39:51.543Z,26.70
2019-05-22T01:42:20.747Z,27.17
2019-05-22T01:45:00.599Z,28.40
2019-05-22T01:47:20.831Z,28.40
2019-05-22T01:49:49.667Z,27.85
2019-05-22T01:52:17.531Z,29.23
2019-05-22T01:54:45.232Z,29.95
2019-05-22T01:57:12.522Z,31.55
2019-05-22T01:59:41.483Z,30.50
2019-05-22T02:02:09.455Z,30.85
2019-05-22T02:04:38.541Z,30.10
2019-05-22T02:07:07.470Z,30.60
2019-05-22T02:09:37.411Z,32.53
2019-05-22T02:12:07.031Z,31.82
2019-05-22T02:14:34.823Z,30.85
2019-05-22T02:17:02.896Z,31.77
2019-05-22T02:19:30.201Z,33.58
2019-05-22T02:21:59.150Z,32.60
2019-05-22T02:24:26.440Z,33.10
2019-05-22T02:26:54.307Z,35.28
2019-05-22T02:29:22.053Z,32.70
2019-05-22T02:31:54.994Z,38.05
2019-05-22T02:34:19.808Z,35.98
2019-05-22T02:36:47.374Z,39.10
2019-05-22T02:39:19.519Z,37.35
2019-05-22T02:41:48.253Z,36.20
2019-05-22T02:44:16.333Z,37.53
2019-05-22T02:46:43.705Z,35.60
2019-05-22T02:49:11.661Z,35.05
2019-05-22T02:51:40.020Z,35.83
2019-05-22T02:54:08.075Z,36.15
2019-05-22T02:56:36.051Z,35.63
2019-05-22T02:59:04.336Z,34.50
2019-05-22T03:01:31.636Z,35.52
2019-05-22T03:03:58.935Z,34.38
2019-05-22T03:06:26.263Z,32.30
2019-05-22T03:08:58.271Z,32.78
2019-05-22T03:11:28.398Z,34.73
2019-05-22T03:13:58.978Z,34.80
2019-05-22T03:16:26.457Z,34.92
2019-05-22T03:19:08.464Z,33.92
2019-05-22T03:21:23.234Z,32.00
2019-05-22T03:23:51.192Z,31.87
2019-05-22T03:26:18.585Z,32.28
2019-05-22T03:28:46.150Z,32.48
2019-05-22T03:31:13.703Z,30.52
2019-05-22T03:33:41.170Z,30.43
2019-05-22T03:36:10.469Z,30.95
2019-05-22T03:38:38.961Z,31.93
2019-05-22T03:41:07.030Z,30.30
2019-05-22T03:43:35.195Z,28.50
2019-05-22T03:46:07.662Z,29.00
2019-05-22T03:48:35.227Z,30.60
2019-05-22T03:51:09.348Z,29.30
2019-05-22T03:53:36.687Z,29.72
2019-05-22T03:56:03.967Z,32.45
2019-05-22T03:58:31.335Z,30.02
2019-05-22T04:00:58.667Z,31.25
2019-05-22T04:03:26.456Z,29.20
2019-05-22T04:05:53.926Z,28.42
2019-05-22T04:08:22.880Z,28.67
2019-05-22T04:11:01.908Z,27.87
2019-05-22T04:13:29.459Z,30.32
2019-05-22T04:15:57.831Z,29.10
2019-05-22T04:18:26.009Z,28.73
2019-05-22T04:20:53.577Z,27.93
2019-05-22T04:23:20.971Z,26.77
2019-05-22T04:25:48.283Z,28.25
2019-05-22T04:28:15.975Z,26.07
2019-05-22T04:30:43.351Z,25.97
2019-05-22T04:33:11.347Z,25.30
2019-05-22T04:35:39.510Z,25.52
2019-05-22T04:38:07.698Z,26.23
2019-05-22T04:40:39.547Z,25.12
2019-05-22T04:43:06.870Z,27.15
2019-05-22T04:45:34.223Z,27.90
2019-05-22T04:48:02.407Z,27.67
2019-05-22T04:50:30.251Z,25.82
2019-05-22T04:52:57.557Z,25.68
2019-05-22T04:55:25.231Z,29.25
2019-05-22T04:57:52.990Z,27.98
2019-05-22T05:00:20.980Z,23.95
2019-05-22T05:02:48.370Z,27.32
2019-05-22T05:05:16.134Z,25.48
2019-05-22T05:07:43.798Z,24.32
2019-05-22T05:10:11.128Z,24.50
2019-05-22T05:12:40.087Z,23.92
2019-05-22T05:15:07.955Z,24.45
2019-05-22T05:17:35.405Z,22.77
2019-05-22T05:20:03.280Z,24.30
2019-05-22T05:22:32.221Z,23.45
2019-05-22T05:24:59.532Z,23.95
2019-05-22T05:27:26.990Z,23.07
2019-05-22T05:29:54.315Z,24.00
2019-05-22T05:32:22.027Z,25.05
2019-05-22T05:34:50.938Z,23.85
2019-05-22T05:37:19.879Z,22.00
2019-05-22T05:39:48.884Z,23.80
2019-05-22T05:42:16.182Z,22.60
2019-05-22T05:44:43.502Z,24.45
2019-05-22T05:47:10.790Z,22.87
2019-05-22T05:49:38.108Z,24.60
2019-05-22T05:52:07.094Z,24.47
2019-05-22T05:54:35.164Z,22.52
2019-05-22T05:57:12.871Z,23.35
2019-05-22T05:59:40.429Z,24.52
2019-05-22T06:02:08.019Z,23.07
2019-05-22T06:04:36.362Z,19.92
2019-05-22T06:07:19.063Z,20.88
2019-05-22T06:09:46.811Z,22.07
2019-05-22T06:12:14.422Z,21.77
2019-05-22T06:14:41.728Z,18.95
2019-05-22T06:17:17.966Z,19.02
2019-05-22T06:19:46.957Z,19.50
2019-05-22T06:22:14.927Z,20.52
2019-05-22T06:24:49.837Z,20.35
2019-05-22T06:27:18.803Z,16.60
2019-05-22T06:29:53.502Z,18.90
2019-05-22T06:32:38.296Z,20.15
2019-05-22T06:35:07.563Z,19.92
2019-05-22T06:37:36.530Z,19.37
2019-05-22T06:40:05.860Z,18.80
2019-05-22T06:42:33.829Z,19.23
2019-05-22T06:45:01.302Z,18.25
2019-05-22T06:47:29.914Z,20.97
2019-05-22T06:49:57.228Z,19.62
2019-05-22T06:52:24.550Z,20.32
2019-05-22T06:54:51.947Z,19.67
2019-05-22T06:57:21.199Z,22.10
2019-05-22T07:00:10.754Z,20.35
2019-05-22T07:02:20.155Z,22.20
2019-05-22T07:04:48.147Z,20.27
2019-05-22T07:07:15.520Z,22.00
2019-05-22T07:09:44.673Z,19.25
2019-05-22T07:12:13.636Z,20.43
2019-05-22T07:14:54.582Z,21.15
2019-05-22T07:17:23.478Z,21.27
2019-05-22T07:19:50.777Z,18.85
2019-05-22T07:22:18.250Z,19.42
2019-05-22T07:24:45.559Z,19.98
2019-05-22T07:27:18.431Z,19.40
2019-05-22T07:29:45.752Z,19.67
2019-05-22T07:32:13.055Z,19.62
2019-05-22T07:34:40.430Z,17.50
2019-05-22T07:37:07.754Z,18.55
2019-05-22T07:39:35.050Z,18.92
2019-05-22T07:42:02.363Z,17.20
2019-05-22T07:44:29.692Z,16.25
2019-05-22T07:46:57.008Z,16.93
2019-05-22T07:49:24.302Z,16.95
2019-05-22T07:51:58.853Z,16.37
2019-05-22T07:54:20.737Z,12.58
2019-05-22T07:56:48.024Z,13.65
2019-05-22T07:59:15.595Z,13.62
2019-05-22T08:01:42.918Z,15.15
2019-05-22T08:04:10.202Z,16.97
2019-05-22T08:06:37.526Z,15.88
2019-05-22T08:09:07.576Z,15.95
2019-05-22T08:11:35.104Z,15.72
2019-05-22T08:14:02.690Z,16.23
2019-05-22T08:16:30.022Z,13.28
2019-05-22T08:18:57.300Z,11.48
2019-05-22T08:21:24.863Z,12.33
2019-05-22T08:23:52.326Z,11.78
2019-05-22T08:26:20.991Z,12.68
2019-05-22T08:28:48.299Z,12.10
2019-05-22T08:31:15.744Z,11.25
2019-05-22T08:33:43.094Z,12.45
2019-05-22T08:36:10.561Z,13.18
2019-05-22T08:38:37.957Z,11.45
2019-05-22T08:41:06.899Z,12.07
2019-05-22T08:43:55.854Z,11.97
2019-05-22T08:46:04.022Z,11.08
2019-05-22T08:48:32.552Z,10.63
2019-05-22T08:51:00.068Z,11.88
2019-05-22T08:53:27.810Z,12.20
2019-05-22T08:55:55.099Z,13.68
2019-05-22T08:58:23.182Z,11.25
2019-05-22T09:00:50.478Z,11.20
2019-05-22T09:03:18.151Z,10.55
2019-05-22T09:05:45.535Z,12.10
2019-05-22T09:08:12.853Z,10.63
2019-05-22T09:10:40.171Z,10.70
2019-05-22T09:13:07.478Z,11.65
2019-05-22T09:15:34.845Z,13.25
2019-05-22T09:18:02.613Z,11.80
2019-05-22T09:20:46.452Z,10.48
2019-05-22T09:22:59.636Z,10.48
2019-05-22T09:25:27.803Z,12.33
2019-05-22T09:27:55.143Z,11.25
2019-05-22T09:30:22.433Z,12.82
2019-05-22T09:32:49.759Z,12.37
2019-05-22T09:35:17.050Z,9.08
2019-05-22T09:37:44.372Z,9.08
2019-05-22T09:40:11.677Z,8.30
2019-05-22T09:42:38.980Z,10.30
2019-05-22T09:45:08.239Z,7.72
2019-05-22T09:47:35.564Z,8.63
2019-05-22T09:50:03.436Z,8.60
2019-05-22T09:52:30.727Z,6.97
2019-05-22T09:54:58.082Z,7.50
2019-05-22T09:57:25.376Z,7.80
2019-05-22T09:59:52.704Z,7.17
2019-05-22T10:02:20.000Z,6.90
2019-05-22T10:04:47.706Z,8.28
2019-05-22T10:07:14.979Z,8.05
2019-05-22T10:09:42.747Z,6.42
2019-05-22T10:12:11.566Z,7.05
2019-05-22T10:14:39.615Z,7.70
2019-05-22T10:17:07.453Z,6.37
2019-05-22T10:19:34.935Z,7.10
2019-05-22T10:22:03.663Z,5.97
2019-05-22T10:24:31.141Z,6.05
2019-05-22T10:26:58.711Z,7.22
2019-05-22T10:29:26.148Z,6.03
2019-05-22T10:31:53.485Z,6.90
2019-05-22T10:34:20.778Z,7.65
2019-05-22T10:36:48.108Z,6.87
2019-05-22T10:39:15.418Z,6.28
2019-05-22T10:41:42.717Z,7.10
2019-05-22T10:44:10.211Z,7.60
2019-05-22T10:46:37.657Z,5.83
2019-05-22T10:49:04.956Z,6.80
2019-05-22T10:51:32.288Z,6.25
2019-05-22T10:53:59.946Z,6.20
2019-05-22T10:56:27.267Z,5.85
2019-05-22T10:58:54.562Z,6.15
2019-05-22T11:01:22.030Z,6.42
2019-05-22T11:03:49.437Z,6.40
2019-05-22T11:06:16.902Z,5.95
2019-05-22T11:08:44.232Z,7.72
2019-05-22T11:11:11.609Z,6.62
2019-05-22T11:13:39.076Z,7.10
2019-05-22T11:16:06.755Z,6.87
2019-05-22T11:18:35.087Z,9.00
2019-05-22T11:21:03.171Z,6.75
2019-05-22T11:23:31.125Z,6.67
2019-05-22T11:25:58.399Z,5.25
2019-05-22T11:28:26.958Z,6.10
2019-05-22T11:30:54.330Z,5.20
2019-05-22T11:33:21.791Z,6.42
2019-05-22T11:35:49.161Z,5.92
2019-05-22T11:38:17.441Z,10.63
2019-05-22T11:40:45.309Z,5.78
2019-05-22T11:43:13.070Z,8.48
2019-05-22T11:45:40.374Z,10.28
2019-05-22T11:48:08.165Z,6.83
2019-05-22T11:50:35.645Z,8.73
2019-05-22T11:53:02.966Z,6.50
2019-05-22T11:55:43.725Z,6.28
2019-05-22T11:57:59.676Z,6.10
2019-05-22T12:00:27.040Z,6.50
2019-05-22T12:02:54.503Z,5.35
2019-05-22T12:05:21.901Z,15.48
2019-05-22T12:07:50.052Z,5.33
2019-05-22T12:10:17.531Z,5.35
2019-05-22T12:12:44.871Z,5.00
2019-05-22T12:15:12.274Z,4.22
2019-05-22T12:17:39.855Z,5.47
2019-05-22T12:20:07.321Z,9.35
2019-05-22T12:22:34.930Z,11.65
2019-05-22T12:25:02.223Z,5.40
2019-05-22T12:27:29.517Z,5.95
2019-05-22T12:29:56.915Z,5.28
2019-05-22T12:32:24.601Z,6.70
2019-05-22T12:34:52.042Z,8.45
2019-05-22T12:37:19.358Z,6.87
2019-05-22T12:39:46.743Z,9.93
2019-05-22T12:42:15.106Z,12.43
2019-05-22T12:44:42.502Z,4.83
2019-05-22T12:47:09.820Z,5.45
2019-05-22T12:49:37.167Z,5.55
2019-05-22T12:52:06.171Z,7.90
2019-05-22T12:54:46.263Z,6.20
2019-05-22T12:57:03.041Z,8.15
2019-05-22T12:59:30.344Z,4.25
2019-05-22T13:01:58.018Z,8.25
2019-05-22T13:04:25.343Z,10.60
2019-05-22T13:06:52.637Z,2.20
2019-05-22T13:09:20.200Z,3.35
2019-05-22T13:11:47.548Z,3.30
2019-05-22T13:14:14.839Z,4.00
2019-05-22T13:16:47.936Z,4.28
2019-05-22T13:19:11.148Z,4.97
2019-05-22T13:21:39.339Z,3.62
2019-05-22T13:24:20.171Z,5.85
2019-05-22T13:26:47.845Z,4.08
2019-05-22T13:29:15.147Z,3.67
2019-05-22T13:31:43.015Z,3.70
2019-05-22T13:34:11.310Z,3.60
2019-05-22T13:36:38.595Z,3.33
2019-05-22T13:39:07.968Z,4.22
2019-05-22T13:41:35.319Z,3.98
2019-05-22T13:44:03.796Z,4.50
2019-05-22T13:46:31.449Z,5.17
2019-05-22T13:48:58.758Z,5.80
2019-05-22T13:51:26.046Z,7.87
2019-05-22T13:53:53.367Z,9.48
2019-05-22T13:56:25.046Z,7.05
2019-05-22T13:58:49.667Z,5.90
2019-05-22T14:01:17.053Z,4.53
2019-05-22T14:03:44.395Z,4.58
2019-05-22T14:06:11.632Z,6.08
2019-05-22T14:08:38.936Z,7.08
2019-05-22T14:11:06.872Z,4.45
2019-05-22T14:13:34.369Z,3.95
2019-05-22T14:16:01.689Z,3.55
2019-05-22T14:18:28.984Z,3.77
2019-05-22T14:20:56.279Z,4.58
2019-05-22T14:23:23.605Z,3.20
2019-05-22T14:25:51.470Z,3.05
2019-05-22T14:28:20.385Z,4.00
2019-05-22T14:30:47.697Z,4.20
2019-05-22T14:33:14.976Z,3.40
2019-05-22T14:35:49.399Z,3.62
2019-05-22T14:38:13.246Z,3.00
2019-05-22T14:40:40.611Z,4.78
2019-05-22T14:43:07.958Z,3.72
2019-05-22T14:45:35.404Z,2.87
2019-05-22T14:48:02.698Z,4.10
2019-05-22T14:50:32.710Z,4.35
2019-05-22T14:52:59.232Z,4.72
2019-05-22T14:55:26.888Z,4.12
2019-05-22T14:57:54.284Z,3.90
2019-05-22T15:00:22.948Z,3.40
2019-05-22T15:02:55.006Z,3.80
2019-05-22T15:05:19.444Z,4.45
2019-05-22T15:07:46.735Z,4.87
2019-05-22T15:10:16.847Z,3.92
2019-05-22T15:12:42.990Z,3.42
2019-05-22T15:15:10.432Z,4.20
2019-05-22T15:17:37.741Z,3.45
2019-05-22T15:20:08.046Z,3.90
2019-05-22T15:22:35.632Z,2.65
2019-05-22T15:25:04.383Z,3.47
2019-05-22T15:27:31.749Z,2.95
2019-05-22T15:29:59.024Z,4.80
2019-05-22T15:32:26.346Z,3.22
2019-05-22T15:34:53.705Z,3.45
2019-05-22T15:37:21.187Z,2.83
2019-05-22T15:39:48.525Z,2.80
2019-05-22T15:42:35.808Z,2.60
2019-05-22T15:45:05.259Z,2.40
2019-05-22T15:47:51.831Z,2.70
2019-05-22T15:50:01.509Z,3.20
2019-05-22T15:52:30.432Z,2.80
2019-05-22T15:54:57.765Z,2.77
2019-05-22T15:57:25.512Z,3.17
2019-05-22T15:59:52.815Z,3.00
2019-05-22T16:02:22.039Z,3.17
2019-05-22T16:04:49.457Z,3.10
2019-05-22T16:07:16.940Z,3.15
2019-05-22T16:09:44.595Z,3.05
2019-05-22T16:12:12.165Z,2.90
2019-05-22T16:14:39.744Z,2.15
2019-05-22T16:17:07.212Z,3.02
2019-05-22T16:19:34.505Z,2.87
2019-05-22T16:22:03.746Z,3.15
2019-05-22T16:24:31.038Z,3.10
2019-05-22T16:26:58.398Z,2.22
2019-05-22T16:29:26.174Z,2.10
2019-05-22T16:31:53.725Z,2.40
2019-05-22T16:34:21.107Z,2.60
2019-05-22T16:36:48.445Z,2.58
2019-05-22T16:39:16.297Z,2.37
2019-05-22T16:41:44.180Z,2.47
2019-05-22T16:44:12.124Z,2.15
2019-05-22T16:46:40.288Z,2.62
2019-05-22T16:49:07.592Z,2.67
2019-05-22T16:51:35.730Z,2.90
2019-05-22T16:54:04.333Z,3.00
2019-05-22T16:56:32.002Z,2.58
2019-05-22T16:58:59.459Z,2.50
2019-05-22T17:01:27.051Z,2.22
2019-05-22T17:03:54.825Z,2.20
2019-05-22T17:06:22.201Z,1.90
2019-05-22T17:08:50.131Z,1.85
2019-05-22T17:11:17.441Z,3.17
2019-05-22T17:13:44.747Z,6.05
2019-05-22T17:16:12.205Z,10.40
2019-05-22T17:18:47.420Z,5.67
2019-05-22T17:21:08.456Z,3.70
2019-05-22T17:23:35.767Z,2.00
2019-05-22T17:26:03.217Z,2.20
2019-05-22T17:28:30.476Z,2.25
2019-05-22T17:30:58.236Z,1.57
2019-05-22T17:33:26.152Z,2.27
2019-05-22T17:35:54.796Z,2.50
2019-05-22T17:38:22.236Z,2.70
2019-05-22T17:40:49.558Z,2.20
2019-05-22T17:43:17.017Z,2.72
2019-05-22T17:45:44.761Z,3.10
2019-05-22T17:48:12.116Z,3.10
2019-05-22T17:50:39.573Z,2.35
2019-05-22T17:53:06.884Z,2.60
2019-05-22T17:55:34.380Z,2.45
2019-05-22T17:58:01.910Z,2.60
2019-05-22T18:00:39.789Z,2.52
2019-05-22T18:03:07.084Z,2.30
2019-05-22T18:05:34.388Z,1.90
2019-05-22T18:08:01.780Z,2.33
2019-05-22T18:10:30.210Z,2.33
2019-05-22T18:12:57.478Z,2.20
2019-05-22T18:15:24.802Z,3.65
2019-05-22T18:17:52.107Z,2.40
2019-05-22T18:20:19.697Z,2.60
2019-05-22T18:22:47.012Z,3.87
2019-05-22T18:25:15.083Z,3.85
2019-05-22T18:27:42.634Z,2.83
2019-05-22T18:30:09.942Z,2.55
2019-05-22T18:32:38.528Z,2.37
2019-05-22T18:35:05.850Z,3.25
2019-05-22T18:37:33.143Z,2.90
2019-05-22T18:40:00.429Z,2.70
2019-05-22T18:42:28.071Z,2.85
2019-05-22T18:44:55.331Z,2.85
2019-05-22T18:47:22.924Z,3.62
2019-05-22T18:49:50.830Z,3.50
2019-05-22T18:52:18.151Z,2.98
2019-05-22T18:54:45.457Z,3.50
2019-05-22T18:57:12.799Z,3.35
2019-05-22T18:59:40.110Z,3.30
2019-05-22T19:02:09.224Z,4.00
2019-05-22T19:04:36.816Z,4.35
2019-05-22T19:07:04.291Z,5.15
2019-05-22T19:09:31.664Z,5.85
2019-05-22T19:11:58.944Z,4.75
2019-05-22T19:14:26.518Z,4.10
2019-05-22T19:16:53.831Z,6.35
2019-05-22T19:19:21.192Z,4.85
2019-05-22T19:21:48.428Z,5.42
2019-05-22T19:24:15.741Z,6.03
2019-05-22T19:26:43.293Z,6.60
2019-05-22T19:29:10.862Z,6.70
2019-05-22T19:31:38.177Z,6.22
2019-05-22T19:34:05.501Z,6.72
2019-05-22T19:36:32.789Z,6.92
2019-05-22T19:39:00.183Z,7.28
2019-05-22T19:41:27.650Z,6.25
2019-05-22T19:43:55.345Z,8.08
2019-05-22T19:46:22.622Z,6.42
2019-05-22T19:48:49.920Z,19.52
2019-05-22T19:51:17.536Z,7.40
2019-05-22T19:53:46.326Z,7.28
2019-05-22T19:56:14.566Z,8.08
2019-05-22T19:58:41.873Z,7.25
2019-05-22T20:01:09.515Z,6.70
2019-05-22T20:03:36.804Z,6.35
2019-05-22T20:06:05.384Z,7.03
2019-05-22T20:08:36.088Z,6.75
2019-05-22T20:11:01.820Z,5.70
2019-05-22T20:13:29.103Z,6.03
2019-05-22T20:15:56.429Z,5.87
2019-05-22T20:18:23.724Z,6.83
2019-05-22T20:20:51.611Z,6.12
2019-05-22T20:23:32.968Z,6.45
2019-05-22T20:25:49.145Z,6.35
2019-05-22T20:28:16.713Z,7.83
2019-05-22T20:30:44.007Z,6.40
2019-05-22T20:33:11.521Z,6.20
2019-05-22T20:35:38.804Z,7.45
2019-05-22T20:38:07.373Z,6.78
2019-05-22T20:40:35.315Z,7.47
2019-05-22T20:43:03.775Z,7.58
2019-05-22T20:45:32.171Z,9.50
2019-05-22T20:48:03.670Z,8.43
2019-05-22T20:50:30.983Z,12.35
2019-05-22T20:52:58.783Z,10.95
2019-05-22T20:55:26.066Z,12.78
2019-05-22T20:57:53.448Z,11.70
2019-05-22T21:00:21.835Z,12.20
2019-05-22T21:02:50.663Z,12.23
2019-05-22T21:05:19.801Z,12.25
2019-05-22T21:07:48.867Z,10.18
2019-05-22T21:10:16.961Z,10.05
2019-05-22T21:12:44.904Z,10.43
2019-05-22T21:15:12.212Z,10.30
2019-05-22T21:17:39.702Z,11.60
2019-05-22T21:20:07.262Z,10.95
2019-05-22T21:22:34.562Z,10.53
2019-05-22T21:25:02.064Z,12.88
2019-05-22T21:27:29.874Z,16.30
2019-05-22T21:29:57.567Z,12.70
2019-05-22T21:32:24.935Z,11.90
2019-05-22T21:34:52.314Z,10.50
2019-05-22T21:37:19.639Z,11.50
2019-05-22T21:39:47.500Z,11.03
2019-05-22T21:42:15.171Z,11.48
2019-05-22T21:44:42.558Z,10.88
2019-05-22T21:47:10.324Z,10.95
2019-05-22T21:49:38.955Z,10.20
2019-05-22T21:52:06.591Z,10.80
2019-05-22T21:54:33.959Z,12.90
2019-05-22T21:57:01.267Z,10.75
2019-05-22T21:59:28.932Z,14.38
2019-05-22T22:02:01.062Z,15.35
2019-05-22T22:04:30.066Z,13.40
2019-05-22T22:06:57.735Z,10.55
2019-05-22T22:09:26.672Z,11.03
2019-05-22T22:11:54.167Z,11.53
2019-05-22T22:14:22.122Z,12.10
2019-05-22T22:16:49.714Z,11.40
2019-05-22T22:19:18.307Z,12.15
2019-05-22T22:21:45.893Z,12.70
2019-05-22T22:24:13.195Z,12.47
2019-05-22T22:26:40.539Z,13.53
2019-05-22T22:29:07.968Z,11.70
2019-05-22T22:31:35.834Z,10.82
2019-05-22T22:34:05.553Z,10.60
2019-05-22T22:36:33.021Z,12.68
2019-05-22T22:39:00.309Z,11.25
2019-05-22T22:41:28.003Z,11.40
2019-05-22T22:43:55.295Z,11.10
2019-05-22T22:46:39.912Z,12.93
2019-05-22T22:49:08.199Z,12.40
2019-05-22T22:51:35.574Z,12.70
2019-05-22T22:54:04.802Z,11.85
2019-05-22T22:56:32.128Z,12.23
2019-05-22T22:59:00.419Z,11.68
2019-05-22T23:01:30.328Z,12.18
2019-05-22T23:03:58.952Z,12.65
2019-05-22T23:06:26.586Z,12.00
2019-05-22T23:08:54.360Z,11.57
2019-05-22T23:11:22.467Z,10.48
2019-05-22T23:13:50.290Z,11.75
2019-05-22T23:16:18.853Z,10.75
2019-05-22T23:18:48.045Z,10.53
2019-05-22T23:21:16.571Z,10.40
2019-05-22T23:23:43.929Z,10.72
2019-05-22T23:26:11.507Z,10.13
2019-05-22T23:28:40.716Z,11.10
2019-05-22T23:31:09.789Z,11.08
2019-05-22T23:33:37.567Z,11.55
2019-05-22T23:36:05.442Z,10.82
2019-05-22T23:38:33.237Z,10.70
2019-05-22T23:41:00.963Z,12.00
2019-05-22T23:43:28.335Z,12.55
2019-05-22T23:45:56.435Z,12.20
2019-05-22T23:48:24.103Z,14.38
2019-05-22T23:50:52.187Z,13.28
2019-05-22T23:53:21.171Z,13.20
2019-05-22T23:55:49.904Z,12.45
2019-05-22T23:58:17.670Z,11.08
